createdAt,value
2023-03-07T00:00:40.517Z,972.3
2023-03-07T00:02:52.377Z,972.2
2023-03-07T00:04:44.314Z,972.3
2023-03-07T00:08:48.092Z,972.3
2023-03-07T00:10:49.573Z,972.3
2023-03-07T00:12:51.098Z,972.2
2023-03-07T00:14:52.739Z,972.2
2023-03-07T00:18:55.168Z,972.2
2023-03-07T00:20:56.600Z,972.3
2023-03-07T00:22:58.159Z,972.2
2023-03-07T00:24:59.223Z,972.2
2023-03-07T00:27:00.764Z,972.2
2023-03-07T00:29:02.750Z,972.2
2023-03-07T00:31:04.777Z,972.1
2023-03-07T00:33:06.489Z,972.1
2023-03-07T00:35:07.671Z,972.1
2023-03-07T00:37:09.112Z,972.1
2023-03-07T00:39:11.097Z,972
2023-03-07T00:41:12.334Z,971.9
2023-03-07T00:43:13.845Z,972
2023-03-07T00:45:15.055Z,971.9
2023-03-07T00:47:16.619Z,971.9
2023-03-07T00:49:18.118Z,971.9
2023-03-07T00:51:19.208Z,971.8
2023-03-07T00:53:21.050Z,971.8
2023-03-07T00:55:22.978Z,971.8
2023-03-07T00:57:24.830Z,971.8
2023-03-07T01:01:28.055Z,971.7
2023-03-07T01:03:29.900Z,971.7
2023-03-07T01:05:31.463Z,971.8
2023-03-07T01:07:32.577Z,971.8
2023-03-07T01:09:34.508Z,971.7
2023-03-07T01:11:36.064Z,971.8
2023-03-07T01:13:37.300Z,971.8
2023-03-07T01:15:39.034Z,971.7
2023-03-07T01:17:40.954Z,971.8
2023-03-07T01:19:42.875Z,971.8
2023-03-07T01:21:44.270Z,971.7
2023-03-07T01:23:45.845Z,971.8
2023-03-07T01:25:47.234Z,971.7
2023-03-07T01:27:48.652Z,971.8
2023-03-07T01:29:49.990Z,971.8
2023-03-07T01:31:51.493Z,971.8
2023-03-07T01:33:53.060Z,971.8
2023-03-07T01:35:54.553Z,971.8
2023-03-07T01:37:56.172Z,971.8
2023-03-07T01:39:57.974Z,971.7
2023-03-07T01:41:59.939Z,971.7
2023-03-07T01:44:01.336Z,971.8
2023-03-07T01:46:03.020Z,971.7
2023-03-07T01:50:05.692Z,971.6
2023-03-07T01:52:07.421Z,971.6
2023-03-07T01:54:08.557Z,971.6
2023-03-07T01:56:09.798Z,971.5
2023-03-07T01:58:11.751Z,971.5
2023-03-07T02:00:13.306Z,971.5
2023-03-07T02:02:14.371Z,971.5
2023-03-07T02:04:15.510Z,971.4
2023-03-07T02:06:16.949Z,971.4
2023-03-07T02:08:18.615Z,971.4
2023-03-07T02:10:19.706Z,971.4
2023-03-07T02:12:23.033Z,971.3
2023-03-07T02:14:22.402Z,971.2
2023-03-07T02:16:24.415Z,971.2
2023-03-07T02:18:25.474Z,971.2
2023-03-07T02:20:27.018Z,971.2
2023-03-07T02:22:28.849Z,971.1
2023-03-07T02:24:30.709Z,971.2
2023-03-07T02:26:32.235Z,971.2
2023-03-07T02:28:33.789Z,971.2
2023-03-07T02:30:35.100Z,971.2
2023-03-07T02:32:36.320Z,971.1
2023-03-07T02:34:38.247Z,971.2
2023-03-07T02:36:40.268Z,971.2
2023-03-07T02:38:41.859Z,971.1
2023-03-07T02:40:43.488Z,971.1
2023-03-07T02:42:45.170Z,971
2023-03-07T02:44:46.453Z,971.1
2023-03-07T02:48:49.846Z,971
2023-03-07T02:50:51.400Z,971
2023-03-07T02:52:52.535Z,971
2023-03-07T02:54:53.792Z,971
2023-03-07T02:56:55.517Z,971
2023-03-07T02:58:56.877Z,970.9
2023-03-07T03:00:58.473Z,970.8
2023-03-07T03:03:00.156Z,970.8
2023-03-07T03:05:02.132Z,970.8
2023-03-07T03:07:03.423Z,970.8
2023-03-07T03:09:04.699Z,970.8
2023-03-07T03:11:06.137Z,970.8
2023-03-07T03:13:07.183Z,970.8
2023-03-07T03:15:08.450Z,970.9
2023-03-07T03:17:10.130Z,970.9
2023-03-07T03:19:11.794Z,970.9
2023-03-07T03:21:12.818Z,970.8
2023-03-07T03:23:14.095Z,970.9
2023-03-07T03:25:15.556Z,970.9
2023-03-07T03:27:17.392Z,970.8
2023-03-07T03:31:21.080Z,970.7
2023-03-07T03:33:22.418Z,970.8
2023-03-07T03:35:24.189Z,970.7
2023-03-07T03:37:25.876Z,970.7
2023-03-07T03:39:27.045Z,970.9
2023-03-07T03:41:28.578Z,970.8
2023-03-07T03:43:30.192Z,970.8
2023-03-07T03:45:32.131Z,970.8
2023-03-07T03:47:33.257Z,970.9
2023-03-07T03:49:35.206Z,970.9
2023-03-07T03:51:36.541Z,970.8
2023-03-07T03:53:37.812Z,970.8
2023-03-07T03:55:39.346Z,970.9
2023-03-07T03:57:41.172Z,970.9
2023-03-07T03:59:42.929Z,970.9
2023-03-07T04:01:44.193Z,970.8
2023-03-07T04:03:45.090Z,970.9
2023-03-07T04:05:46.611Z,970.8
2023-03-07T04:07:49.177Z,970.8
2023-03-07T04:09:49.716Z,970.8
2023-03-07T04:11:51.257Z,970.8
2023-03-07T04:13:53.209Z,970.7
2023-03-07T04:15:54.989Z,970.8
2023-03-07T04:17:57.020Z,970.8
2023-03-07T04:19:59.017Z,970.7
2023-03-07T04:22:00.936Z,970.5
2023-03-07T04:24:02.611Z,970.6
2023-03-07T04:26:04.361Z,970.6
2023-03-07T04:28:06.275Z,970.5
2023-03-07T04:30:07.653Z,970.6
2023-03-07T04:32:09.501Z,970.6
2023-03-07T04:34:11.103Z,970.5
2023-03-07T04:36:12.426Z,970.5
2023-03-07T04:38:13.517Z,970.5
2023-03-07T04:40:14.944Z,970.5
2023-03-07T04:42:16.666Z,970.5
2023-03-07T04:44:18.585Z,970.4
2023-03-07T04:46:20.301Z,970.5
2023-03-07T04:48:21.636Z,970.4
2023-03-07T04:51:12.496Z,970.5
2023-03-07T04:53:09.617Z,970.4
2023-03-07T04:55:10.674Z,970.4
2023-03-07T04:57:12.202Z,970.4
2023-03-07T04:59:14.044Z,970.4
2023-03-07T05:01:15.522Z,970.4
2023-03-07T05:03:16.973Z,970.4
2023-03-07T05:05:18.441Z,970.4
2023-03-07T05:07:20.082Z,970.3
2023-03-07T05:09:21.244Z,970.3
2023-03-07T05:11:23.084Z,970.3
2023-03-07T05:13:25.112Z,970.3
2023-03-07T05:17:28.105Z,970.2
2023-03-07T05:19:29.709Z,970.1
2023-03-07T05:21:31.390Z,970.3
2023-03-07T05:23:32.460Z,970.3
2023-03-07T05:27:34.699Z,970.2
2023-03-07T05:29:36.121Z,970.2
2023-03-07T05:31:38.243Z,970.2
2023-03-07T05:33:39.456Z,970.1
2023-03-07T05:35:40.572Z,970.1
2023-03-07T05:37:42.279Z,970.1
2023-03-07T05:39:44.022Z,970.1
2023-03-07T05:41:45.248Z,970.1
2023-03-07T05:43:46.878Z,970.1
2023-03-07T05:45:48.803Z,970.1
2023-03-07T05:47:50.462Z,970.1
2023-03-07T05:49:52.127Z,970.1
2023-03-07T05:51:53.944Z,970.2
2023-03-07T05:53:55.460Z,970
2023-03-07T05:55:56.605Z,970.1
2023-03-07T05:57:57.782Z,970
2023-03-07T05:59:59.389Z,970
2023-03-07T06:02:00.982Z,970.2
2023-03-07T06:04:02.411Z,970.1
2023-03-07T06:06:03.597Z,970.1
2023-03-07T06:08:05.341Z,970.1
2023-03-07T06:10:06.573Z,970.1
2023-03-07T06:12:07.851Z,970.2
2023-03-07T06:16:11.219Z,970
2023-03-07T06:18:12.588Z,970
2023-03-07T06:20:14.394Z,970
2023-03-07T06:22:15.616Z,969.9
2023-03-07T06:24:17.610Z,969.9
2023-03-07T06:26:19.195Z,970
2023-03-07T06:28:20.550Z,969.9
2023-03-07T06:30:21.938Z,969.9
2023-03-07T06:32:23.402Z,970
2023-03-07T06:34:25.302Z,969.9
2023-03-07T06:36:27.287Z,969.9
2023-03-07T06:38:28.920Z,969.8
2023-03-07T06:40:30.193Z,969.8
2023-03-07T06:42:31.729Z,969.8
2023-03-07T06:44:33.715Z,969.9
2023-03-07T06:46:34.903Z,969.8
2023-03-07T06:48:36.835Z,969.8
2023-03-07T06:50:38.781Z,969.8
2023-03-07T06:52:40.410Z,969.8
2023-03-07T06:54:41.653Z,969.9
2023-03-07T06:58:44.541Z,969.8
2023-03-07T07:00:45.831Z,969.8
2023-03-07T07:02:47.960Z,969.8
2023-03-07T07:04:49.031Z,969.7
2023-03-07T07:06:50.918Z,969.8
2023-03-07T07:08:52.358Z,969.8
2023-03-07T07:10:54.316Z,969.8
2023-03-07T07:12:56.047Z,969.8
2023-03-07T07:14:57.118Z,969.8
2023-03-07T07:16:58.678Z,969.8
2023-03-07T07:19:00.237Z,969.8
2023-03-07T07:21:01.993Z,969.8
2023-03-07T07:23:03.755Z,969.8
2023-03-07T07:25:05.529Z,969.9
2023-03-07T07:27:07.360Z,969.8
2023-03-07T07:29:08.989Z,969.9
2023-03-07T07:31:10.286Z,969.9
2023-03-07T07:33:11.638Z,969.9
2023-03-07T07:35:13.059Z,970
2023-03-07T07:37:14.390Z,970
2023-03-07T07:41:18.040Z,969.9
2023-03-07T07:43:19.775Z,970
2023-03-07T07:45:21.077Z,970
2023-03-07T07:47:22.106Z,970
2023-03-07T07:49:23.118Z,969.9
2023-03-07T07:51:24.683Z,970
2023-03-07T07:53:26.108Z,970
2023-03-07T07:57:29.241Z,969.8
2023-03-07T07:59:30.616Z,969.9
2023-03-07T08:01:32.109Z,969.8
2023-03-07T08:03:33.464Z,969.8
2023-03-07T08:05:35.151Z,969.8
2023-03-07T08:07:36.184Z,969.8
2023-03-07T08:09:38.009Z,969.8
2023-03-07T08:11:39.589Z,969.7
2023-03-07T08:13:41.313Z,969.9
2023-03-07T08:15:42.378Z,969.8
2023-03-07T08:17:44.101Z,969.8
2023-03-07T08:19:45.814Z,969.8
2023-03-07T08:21:46.855Z,969.8
2023-03-07T08:23:48.499Z,969.7
2023-03-07T08:25:50.304Z,969.8
2023-03-07T08:27:51.374Z,969.7
2023-03-07T08:29:52.701Z,969.7
2023-03-07T08:31:53.844Z,969.7
2023-03-07T08:33:55.413Z,969.6
2023-03-07T08:35:56.469Z,969.8
2023-03-07T08:39:59.573Z,969.5
2023-03-07T08:42:01.180Z,969.6
2023-03-07T08:44:02.531Z,969.5
2023-03-07T08:46:04.075Z,969.6
2023-03-07T08:48:05.721Z,969.4
2023-03-07T08:50:06.803Z,969.4
2023-03-07T08:52:08.496Z,969.5
2023-03-07T08:54:09.916Z,969.4
2023-03-07T08:56:11.438Z,969.4
2023-03-07T08:58:12.665Z,969.4
2023-03-07T09:00:14.532Z,969.4
2023-03-07T09:02:15.462Z,969.5
2023-03-07T09:04:16.792Z,969.3
2023-03-07T09:06:17.775Z,969.2
2023-03-07T09:08:19.501Z,969.3
2023-03-07T09:10:21.184Z,969.3
2023-03-07T09:12:22.433Z,969.2
2023-03-07T09:14:24.423Z,969.2
2023-03-07T09:16:25.679Z,969.3
2023-03-07T09:18:26.570Z,969.2
2023-03-07T09:20:27.499Z,969.3
2023-03-07T09:22:28.768Z,969.1
2023-03-07T09:24:29.757Z,969.3
2023-03-07T09:26:31.346Z,969.2
2023-03-07T09:28:32.582Z,969.1
2023-03-07T09:30:33.563Z,969.1
2023-03-07T09:32:35.449Z,969.1
2023-03-07T09:34:36.774Z,969.1
2023-03-07T09:36:38.638Z,969.2
2023-03-07T09:38:40.583Z,969.2
2023-03-07T09:40:42.106Z,969.2
2023-03-07T09:42:43.401Z,969.1
2023-03-07T09:44:44.992Z,969
2023-03-07T09:48:48.204Z,969.1
2023-03-07T09:50:50.129Z,969.1
2023-03-07T09:52:51.850Z,969
2023-03-07T09:54:53.047Z,968.9
2023-03-07T09:56:54.795Z,969
2023-03-07T09:58:57.231Z,969.1
2023-03-07T10:00:58.692Z,969
2023-03-07T10:02:59.901Z,968.9
2023-03-07T10:05:01.517Z,968.9
2023-03-07T10:07:03.885Z,969
2023-03-07T10:09:05.312Z,968.9
2023-03-07T10:11:06.976Z,968.7
2023-03-07T10:13:07.953Z,968.9
2023-03-07T10:15:09.260Z,968.9
2023-03-07T10:17:10.843Z,968.8
2023-03-07T10:19:12.318Z,968.8
2023-03-07T10:21:14.766Z,968.8
2023-03-07T10:23:15.920Z,968.6
2023-03-07T10:25:17.746Z,968.6
2023-03-07T10:27:20.040Z,968.9
2023-03-07T10:29:21.875Z,968.7
2023-03-07T10:31:23.672Z,968.6
2023-03-07T10:33:25.179Z,968.6
2023-03-07T10:37:28.514Z,968.7
2023-03-07T10:39:29.530Z,968.7
2023-03-07T10:41:30.599Z,968.7
2023-03-07T10:43:32.458Z,968.6
2023-03-07T10:45:33.959Z,968.6
2023-03-07T10:47:35.550Z,968.5
2023-03-07T10:49:37.226Z,968.6
2023-03-07T10:51:39.042Z,968.6
2023-03-07T10:53:40.759Z,968.3
2023-03-07T10:55:42.414Z,968.5
2023-03-07T10:57:43.798Z,968.6
2023-03-07T10:59:44.722Z,968.6
2023-03-07T11:01:46.339Z,968.6
2023-03-07T11:03:53.120Z,968.5
2023-03-07T11:05:49.149Z,968.6
2023-03-07T11:07:50.173Z,968.7
2023-03-07T11:09:51.530Z,968.7
2023-03-07T11:11:53.308Z,968.5
2023-03-07T11:13:54.339Z,968.6
2023-03-07T11:16:06.149Z,968.5
2023-03-07T11:17:56.788Z,968.5
2023-03-07T11:19:58.840Z,968.5
2023-03-07T11:22:01.439Z,968.5
2023-03-07T11:24:02.964Z,968.4
2023-03-07T11:26:04.579Z,968.5
2023-03-07T11:28:06.091Z,968.5
2023-03-07T11:30:07.503Z,968.4
2023-03-07T11:32:09.435Z,968.3
2023-03-07T11:34:10.383Z,968.5
2023-03-07T11:34:54.809Z,968.4
2023-03-07T11:36:56.382Z,968.5
2023-03-07T11:40:58.928Z,968.3
2023-03-07T11:43:00.249Z,968.4
2023-03-07T11:45:02.031Z,968.5
2023-03-07T11:47:03.224Z,968.2
2023-03-07T11:51:05.848Z,968.3
2023-03-07T11:53:07.685Z,968.2
2023-03-07T11:55:08.946Z,968.4
2023-03-07T11:57:10.224Z,968.5
2023-03-07T11:59:11.916Z,968.3
2023-03-07T12:01:13.715Z,968.3
2023-03-07T12:03:15.452Z,968.2
2023-03-07T12:05:16.997Z,968.3
2023-03-07T12:07:18.525Z,968.2
2023-03-07T12:09:19.833Z,968.1
2023-03-07T12:11:21.524Z,968.1
2023-03-07T12:13:22.886Z,968.2
2023-03-07T12:15:24.442Z,968.1
2023-03-07T12:17:26.321Z,968.2
2023-03-07T12:19:28.001Z,968.1
2023-03-07T12:23:31.141Z,968.1
2023-03-07T12:25:32.393Z,968.1
2023-03-07T12:27:33.995Z,968.1
2023-03-07T12:29:35.056Z,968
2023-03-07T12:33:37.879Z,967.9
2023-03-07T12:35:39.259Z,968
2023-03-07T12:37:40.395Z,967.9
2023-03-07T12:39:42.055Z,967.9
2023-03-07T12:41:43.785Z,967.9
2023-03-07T12:43:45.234Z,968
2023-03-07T12:45:46.931Z,967.9
2023-03-07T12:47:48.023Z,968
2023-03-07T12:49:50.176Z,968
2023-03-07T12:51:50.981Z,968
2023-03-07T12:53:52.353Z,968
2023-03-07T12:55:53.779Z,968
2023-03-07T12:57:55.424Z,968
2023-03-07T12:59:56.578Z,968
2023-03-07T13:01:58.040Z,967.9
2023-03-07T13:03:59.778Z,967.9
2023-03-07T13:06:01.457Z,967.9
2023-03-07T13:08:03.028Z,968
2023-03-07T13:10:04.810Z,968
2023-03-07T13:12:06.137Z,967.9
2023-03-07T13:14:07.463Z,968
2023-03-07T13:16:08.871Z,967.8
2023-03-07T13:18:10.792Z,967.9
2023-03-07T13:22:13.940Z,967.8
2023-03-07T13:24:15.049Z,967.7
2023-03-07T13:26:16.966Z,967.7
2023-03-07T13:28:18.079Z,967.7
2023-03-07T13:30:19.569Z,967.7
2023-03-07T13:32:20.543Z,967.6
2023-03-07T13:34:22.426Z,967.6
2023-03-07T13:36:24.293Z,967.6
2023-03-07T13:38:26.172Z,967.6
2023-03-07T13:40:27.437Z,967.6
2023-03-07T13:42:28.935Z,967.7
2023-03-07T13:44:29.908Z,967.6
2023-03-07T13:46:31.722Z,967.5
2023-03-07T13:48:33.474Z,967.5
2023-03-07T13:50:35.204Z,967.4
2023-03-07T13:52:36.652Z,967.4
2023-03-07T13:54:37.843Z,967.2
2023-03-07T13:56:39.083Z,967.4
2023-03-07T13:58:40.197Z,967.3
2023-03-07T14:00:41.270Z,967.2
2023-03-07T14:02:43.951Z,967.3
2023-03-07T14:04:43.944Z,967.2
2023-03-07T14:06:44.925Z,967.2
2023-03-07T14:08:46.026Z,967.4
2023-03-07T14:10:47.171Z,967.4
2023-03-07T14:12:48.903Z,967.5
2023-03-07T14:14:49.845Z,967.3
2023-03-07T14:16:51.026Z,967.4
2023-03-07T14:20:53.335Z,967.4
2023-03-07T14:22:56.078Z,967.3
2023-03-07T14:24:57.072Z,967.4
2023-03-07T14:26:58.926Z,967.2
2023-03-07T14:29:00.512Z,967.4
2023-03-07T14:31:01.921Z,967.3
2023-03-07T14:33:03.222Z,967.2
2023-03-07T14:35:04.968Z,967.3
2023-03-07T14:37:06.675Z,967.3
2023-03-07T14:39:08.568Z,967.4
2023-03-07T14:41:09.883Z,967.4
2023-03-07T14:43:11.001Z,967.5
2023-03-07T14:45:12.161Z,967.5
2023-03-07T14:47:13.257Z,967.5
2023-03-07T14:49:14.369Z,967.4
2023-03-07T14:51:15.634Z,967.3
2023-03-07T14:53:17.040Z,967.6
2023-03-07T14:55:18.790Z,967.5
2023-03-07T14:57:19.904Z,967.5
2023-03-07T14:59:28.264Z,967.4
2023-03-07T15:01:22.962Z,967.5
2023-03-07T15:03:24.785Z,967.5
2023-03-07T15:05:26.432Z,967.4
2023-03-07T15:07:28.337Z,967.4
2023-03-07T15:09:29.838Z,967.6
2023-03-07T15:11:31.337Z,967.5
2023-03-07T15:13:33.108Z,967.5
2023-03-07T15:15:34.597Z,967.6
2023-03-07T15:17:36.412Z,967.5
2023-03-07T15:19:37.787Z,967.4
2023-03-07T15:21:38.758Z,967.5
2023-03-07T15:23:39.858Z,967.5
2023-03-07T15:25:41.159Z,967.5
2023-03-07T15:29:43.960Z,967.6
2023-03-07T15:31:45.887Z,967.6
2023-03-07T15:33:47.167Z,967.5
2023-03-07T15:35:49.149Z,967.4
2023-03-07T15:39:52.713Z,967.1
2023-03-07T15:41:54.486Z,967.4
2023-03-07T15:43:56.220Z,967.5
2023-03-07T15:45:58.180Z,967.3
2023-03-07T15:48:00.019Z,967.4
2023-03-07T15:50:01.739Z,967.4
2023-03-07T15:52:02.925Z,967.3
2023-03-07T15:54:04.307Z,967.5
2023-03-07T15:56:06.071Z,967.4
2023-03-07T15:58:07.064Z,967.5
2023-03-07T16:00:08.258Z,967.5
2023-03-07T16:02:09.519Z,967.5
2023-03-07T16:04:11.253Z,967.4
2023-03-07T16:06:12.575Z,967.6
2023-03-07T16:08:14.551Z,967.5
2023-03-07T16:12:17.281Z,967.4
2023-03-07T16:14:19.144Z,967.5
2023-03-07T16:16:20.946Z,967.6
2023-03-07T16:18:22.512Z,967.5
2023-03-07T16:22:25.650Z,967.6
2023-03-07T16:24:27.261Z,967.7
2023-03-07T16:26:28.704Z,967.6
2023-03-07T16:28:29.932Z,967.6
2023-03-07T16:30:31.869Z,967.5
2023-03-07T16:32:33.129Z,967.6
2023-03-07T16:34:34.632Z,967.6
2023-03-07T16:36:35.724Z,967.6
2023-03-07T16:38:37.555Z,967.6
2023-03-07T16:40:39.922Z,967.6
2023-03-07T16:42:40.076Z,967.6
2023-03-07T16:44:41.484Z,967.6
2023-03-07T16:46:44.723Z,967.6
2023-03-07T16:48:44.756Z,967.6
2023-03-07T16:50:46.319Z,967.7
2023-03-07T16:52:48.110Z,967.8
2023-03-07T16:54:49.675Z,967.7
2023-03-07T16:56:51.120Z,967.8
2023-03-07T16:58:52.303Z,967.8
2023-03-07T17:00:54.137Z,967.8
2023-03-07T17:02:55.647Z,967.7
2023-03-07T17:04:57.240Z,967.9
2023-03-07T17:07:04.690Z,967.9
2023-03-07T17:11:01.586Z,967.9
2023-03-07T17:13:03.395Z,967.8
2023-03-07T17:15:04.818Z,967.9
2023-03-07T17:17:05.842Z,967.9
2023-03-07T17:19:07.526Z,967.8
2023-03-07T17:21:08.995Z,967.8
2023-03-07T17:23:10.928Z,967.9
2023-03-07T17:25:12.239Z,967.9
2023-03-07T17:27:13.545Z,967.9
2023-03-07T17:29:14.516Z,967.9
2023-03-07T17:31:15.865Z,967.9
2023-03-07T17:33:17.242Z,968
2023-03-07T17:35:18.849Z,968
2023-03-07T17:37:20.811Z,968
2023-03-07T17:39:22.122Z,968
2023-03-07T17:41:23.967Z,968
2023-03-07T17:43:25.447Z,968.1
2023-03-07T17:45:27.044Z,968.1
2023-03-07T17:47:28.883Z,968.2
2023-03-07T17:49:29.870Z,968
2023-03-07T17:51:31.332Z,968.1
2023-03-07T17:53:33.163Z,968.1
2023-03-07T17:55:34.448Z,968.1
2023-03-07T17:57:36.352Z,968.1
2023-03-07T17:59:37.863Z,968.1
2023-03-07T18:01:39.108Z,967.9
2023-03-07T18:03:40.340Z,968
2023-03-07T18:05:42.197Z,967.9
2023-03-07T18:09:44.913Z,968
2023-03-07T18:11:46.300Z,968.1
2023-03-07T18:13:47.889Z,968.1
2023-03-07T18:15:48.938Z,968
2023-03-07T18:17:50.471Z,968.1
2023-03-07T18:19:52.277Z,968
2023-03-07T18:20:36.161Z,968.1
2023-03-07T18:24:38.548Z,968.1
2023-03-07T18:26:40.258Z,968.2
2023-03-07T18:30:43.693Z,968
2023-03-07T18:32:45.595Z,968
2023-03-07T18:34:46.811Z,968.1
2023-03-07T18:36:48.450Z,968.1
2023-03-07T18:38:49.594Z,968.2
2023-03-07T18:40:51.595Z,968.2
2023-03-07T18:42:53.290Z,968.1
2023-03-07T18:44:54.555Z,968.2
2023-03-07T18:46:56.578Z,968.2
2023-03-07T18:48:57.600Z,968.2
2023-03-07T18:50:59.055Z,968.3
2023-03-07T18:53:00.795Z,968.3
2023-03-07T18:55:02.374Z,968.3
2023-03-07T18:57:04.032Z,968.4
2023-03-07T18:59:05.034Z,968.4
2023-03-07T19:01:06.254Z,968.5
2023-03-07T19:03:08.163Z,968.5
2023-03-07T19:05:09.233Z,968.5
2023-03-07T19:07:10.803Z,968.3
2023-03-07T19:09:11.989Z,968.4
2023-03-07T19:11:13.101Z,968.5
2023-03-07T19:13:14.184Z,968.4
2023-03-07T19:15:15.641Z,968.4
2023-03-07T19:17:16.988Z,968.5
2023-03-07T19:19:18.457Z,968.3
2023-03-07T19:23:21.559Z,968.3
2023-03-07T19:25:23.033Z,968.5
2023-03-07T19:27:24.639Z,968.5
2023-03-07T19:29:26.249Z,968.5
2023-03-07T19:31:27.620Z,968.4
2023-03-07T19:33:28.791Z,968.5
2023-03-07T19:35:29.869Z,968.4
2023-03-07T19:37:31.322Z,968.3
2023-03-07T19:39:32.858Z,968.4
2023-03-07T19:41:34.784Z,968.4
2023-03-07T19:43:36.725Z,968.5
2023-03-07T19:45:38.069Z,968.5
2023-03-07T19:47:39.549Z,968.4
2023-03-07T19:49:41.210Z,968.4
2023-03-07T19:51:42.531Z,968.4
2023-03-07T19:53:43.695Z,968.4
2023-03-07T19:55:45.215Z,968.4
2023-03-07T19:57:46.743Z,968.4
2023-03-07T19:59:48.551Z,968.4
2023-03-07T20:01:50.518Z,968.4
2023-03-07T20:03:52.229Z,968.4
2023-03-07T20:05:53.285Z,968.5
2023-03-07T20:07:54.333Z,968.5
2023-03-07T20:09:55.349Z,968.5
2023-03-07T20:11:57.178Z,968.7
2023-03-07T20:13:58.623Z,968.6
2023-03-07T20:16:00.118Z,968.6
2023-03-07T20:18:01.142Z,968.6
2023-03-07T20:20:02.835Z,968.5
2023-03-07T20:22:04.826Z,968.5
2023-03-07T20:24:06.256Z,968.3
2023-03-07T20:28:09.060Z,968.6
2023-03-07T20:30:10.747Z,968.6
2023-03-07T20:32:12.078Z,968.4
2023-03-07T20:34:13.078Z,968.5
2023-03-07T20:36:14.923Z,968.5
2023-03-07T20:38:16.799Z,968.4
2023-03-07T20:40:17.837Z,968.6
2023-03-07T20:42:19.279Z,968.5
2023-03-07T20:44:21.191Z,968.6
2023-03-07T20:46:22.372Z,968.7
2023-03-07T20:48:23.826Z,968.6
2023-03-07T20:50:25.755Z,968.5
2023-03-07T20:52:27.432Z,968.6
2023-03-07T20:54:28.676Z,968.5
2023-03-07T20:56:30.453Z,968.6
2023-03-07T20:58:31.870Z,968.7
2023-03-07T21:00:33.398Z,968.7
2023-03-07T21:02:35.154Z,968.6
2023-03-07T21:04:36.199Z,968.7
2023-03-07T21:06:37.568Z,968.7
2023-03-07T21:10:39.998Z,968.8
2023-03-07T21:12:41.936Z,968.8
2023-03-07T21:14:43.276Z,968.8
2023-03-07T21:16:45.119Z,968.9
2023-03-07T21:18:46.884Z,968.7
2023-03-07T21:20:48.594Z,968.7
2023-03-07T21:22:49.630Z,968.8
2023-03-07T21:24:50.956Z,968.8
2023-03-07T21:26:52.089Z,968.7
2023-03-07T21:28:53.066Z,968.9
2023-03-07T21:30:54.509Z,968.7
2023-03-07T21:32:55.571Z,968.8
2023-03-07T21:36:58.387Z,968.9
2023-03-07T21:38:59.792Z,969
2023-03-07T21:41:01.276Z,969
2023-03-07T21:43:02.577Z,968.8
2023-03-07T21:47:05.745Z,969
2023-03-07T21:49:07.388Z,969.1
2023-03-07T21:51:09.323Z,969.1
2023-03-07T21:53:10.411Z,969
2023-03-07T21:55:11.899Z,969.1
2023-03-07T21:57:13.752Z,969.2
2023-03-07T21:59:14.846Z,969.2
2023-03-07T22:01:16.471Z,969.2
2023-03-07T22:03:17.956Z,969.3
2023-03-07T22:05:19.880Z,969.1
2023-03-07T22:07:21.082Z,969.1
2023-03-07T22:09:22.044Z,969.2
2023-03-07T22:11:24.023Z,969.1
2023-03-07T22:13:25.556Z,968.9
2023-03-07T22:15:26.648Z,968.9
2023-03-07T22:17:28.023Z,968.9
2023-03-07T22:19:29.255Z,969.1
2023-03-07T22:21:30.662Z,969.1
2023-03-07T22:23:32.357Z,968.9
2023-03-07T22:25:33.965Z,968.9
2023-03-07T22:29:37.823Z,968.9
2023-03-07T22:31:39.726Z,968.9
2023-03-07T22:33:40.881Z,969
2023-03-07T22:35:42.702Z,968.9
2023-03-07T22:37:43.737Z,969
2023-03-07T22:39:45.481Z,969.2
2023-03-07T22:41:46.693Z,969.2
2023-03-07T22:43:48.508Z,969.2
2023-03-07T22:45:50.048Z,969.2
2023-03-07T22:47:51.333Z,969.2
2023-03-07T22:49:53.164Z,969.2
2023-03-07T22:51:54.504Z,969.2
2023-03-07T22:53:56.128Z,969.2
2023-03-07T22:55:57.420Z,969.3
2023-03-07T22:57:59.113Z,969.1
2023-03-07T23:00:00.626Z,969.3
2023-03-07T23:02:01.899Z,969.4
2023-03-07T23:04:03.610Z,969.3
2023-03-07T23:06:05.466Z,969.4
2023-03-07T23:08:06.709Z,969.5
2023-03-07T23:10:08.597Z,969.3
2023-03-07T23:12:10.166Z,969.4
2023-03-07T23:14:11.744Z,969.4
2023-03-07T23:18:15.108Z,969.5
2023-03-07T23:20:16.598Z,969.5
2023-03-07T23:22:17.789Z,969.5
2023-03-07T23:24:19.262Z,969.6
2023-03-07T23:26:20.555Z,969.5
2023-03-07T23:28:22.202Z,969.6
2023-03-07T23:30:23.151Z,969.6
2023-03-07T23:32:24.451Z,969.7
2023-03-07T23:34:25.541Z,969.5
2023-03-07T23:36:26.598Z,969.5
2023-03-07T23:38:27.891Z,969.5
2023-03-07T23:40:28.879Z,969.5
2023-03-07T23:42:30.661Z,969.4
2023-03-07T23:44:32.230Z,969.6
2023-03-07T23:46:33.300Z,969.5
2023-03-07T23:48:34.820Z,969.4
2023-03-07T23:50:36.155Z,969.5
2023-03-07T23:52:37.981Z,969.6
2023-03-07T23:54:39.764Z,969.7
2023-03-07T23:56:41.327Z,969.5
2023-03-07T23:58:43.298Z,969.7
